NCAR-RAP Real-Time Weather Data

Output produced by METARs form (14 October 2019  23:50 UTC)
found at http://weather.rap.ucar.edu/surface/
 
KEWR 142251Z 25010KT 10SM CLR 21/03 A2994 RMK AO2 SLP138 T02060028 $
KEWR 142151Z 26011KT 10SM CLR 22/02 A2992 RMK AO2 SLP132 T02170017 $
KEWR 142051Z 27013KT 10SM FEW060 FEW250 23/04 A2990 RMK AO2 SLP123 T02280039 56011 $
KEWR 141951Z 27009KT 10SM FEW060 FEW250 24/06 A2990 RMK AO2 SLP124 T02390056 $
KEWR 141851Z 27009KT 10SM FEW250 23/07 A2991 RMK AO2 SLP127 T02330072 $
KEWR 141751Z 23009KT 10SM FEW045 FEW250 22/09 A2993 RMK AO2 SLP135 T02220094 10222 20156 57024 $
KEWR 141651Z 24007KT 10SM FEW039 FEW250 21/11 A2996 RMK AO2 SLP144 T02060106 $
KEWR 141551Z 27007KT 10SM FEW032 19/12 A2998 RMK AO2 SLP150 T01940117 $
KEWR 141502Z 22007KT 10SM SCT024 18/12 A3000 RMK AO2 T01830122 $
KEWR 141451Z 27005KT 10SM BKN023 18/12 A3000 RMK AO2 SLP159 T01780117 50003 $
KEWR 141351Z 27004KT 10SM FEW015 BKN022 OVC028 17/12 A3001 RMK AO2 SLP161 T01670117 $
KEWR 141251Z 27006KT 10SM FEW020 OVC028 16/12 A3001 RMK AO2 SLP160 CIG 026V030 T01610122 $
KEWR 141151Z 27003KT 10SM FEW011 FEW020 OVC027 16/13 A2999 RMK AO2 SLP156 CIG 025V030 T01560128 10156 20150 52015 $
KEWR 141051Z 28005KT 10SM SCT011 OVC017 15/13 A2998 RMK AO2 SLP152 T01500128 $
KEWR 140951Z 15003KT 10SM OVC023 15/13 A2996 RMK AO2 SLP145 T01500128 $
KEWR 140851Z 15003KT 10SM BKN025 15/12 A2995 RMK AO2 SLP141 T01500122 56016 $
KEWR 140751Z 00000KT 10SM FEW017 OVC024 16/12 A2995 RMK AO2 SLP142 T01560122 $
KEWR 140651Z 00000KT 10SM FEW017 BKN023 OVC032 16/12 A2997 RMK AO2 SLP149 T01560122 $
KEWR 140551Z 18003KT 10SM FEW017 OVC023 16/12 A3000 RMK AO2 SLP157 T01560122 10156 20156 56012 $
KEWR 140451Z 00000KT 10SM FEW019 OVC027 16/13 A3001 RMK AO2 SLP160 T01560128 401940111 $
KEWR 140422Z 00000KT 10SM OVC029 16/12 A3001 RMK AO2 T01560122 $
KEWR 140351Z 19004KT 10SM OVC032 16/12 A3002 RMK AO2 SLP166 T01560122 $
KEWR 140251Z 18004KT 10SM OVC032 16/12 A3003 RMK AO2 SLP169 T01560117 56006 $
KEWR 140151Z VRB03KT 10SM OVC038 16/11 A3003 RMK AO2 SLP169 T01560111 $
KEWR 140051Z 19005KT 10SM BKN048 BKN070 BKN240 16/11 A3004 RMK AO2 SLP173 T01560106 $
KEWR 132351Z 18006KT 10SM FEW050 BKN095 BKN240 16/10 A3005 RMK AO2 SLP175 T01560100 10194 20156 53002 $
KEWR 132251Z 17008KT 10SM SCT050 BKN090 BKN240 16/09 A3005 RMK AO2 SLP175 T01560094 $
KEWR 132151Z 16007KT 10SM SCT060 BKN085 BKN240 17/07 A3004 RMK AO2 SLP171 T01720072 $
KEWR 132051Z 17004KT 10SM FEW040 SCT085 BKN250 18/07 A3004 RMK AO2 SLP173 T01780067 56012 $
KEWR 131951Z 13004KT 10SM FEW040 SCT085 BKN250 18/05 A3005 RMK AO2 SLP177 T01830050 $
KEWR 131851Z VRB04KT 10SM FEW035 SCT100 BKN250 18/05 A3006 RMK AO2 SLP178 T01830050 $
KEWR 131751Z VRB03KT 10SM FEW035 BKN100 BKN250 18/06 A3008 RMK AO2 SLP185 T01780056 10183 20128 58015 $
KEWR 131651Z 03004KT 10SM FEW035 FEW090 BKN250 17/06 A3009 RMK AO2 SLP190 T01720056 $
KEWR 131551Z 34005KT 10SM FEW025 FEW045 SCT090 BKN250 16/06 A3011 RMK AO2 SLP195 T01610056 $
KEWR 131451Z 02009KT 10SM FEW025 FEW045 BKN250 16/07 A3012 RMK AO2 SLP200 T01560067 50008 $
KEWR 131351Z 01004KT 10SM FEW025 FEW045 BKN250 15/08 A3013 RMK AO2 SLP202 T01500083 $
KEWR 131251Z 36009KT 10SM FEW020 FEW045 BKN250 13/09 A3012 RMK AO2 SLP200 T01330089 $
KEWR 131151Z 35007KT 10SM FEW019 FEW050 BKN250 13/08 A3010 RMK AO2 SLP192 T01280083 10144 20111 53021 $
KEWR 131051Z 32006KT 10SM FEW050 BKN250 12/09 A3008 RMK AO2 SLP184 T01220089 $
KEWR 130951Z 34007KT 10SM FEW250 12/09 A3005 RMK AO2 SLP177 T01220089 $
KEWR 130851Z 33004KT 10SM FEW250 12/09 A3004 RMK AO2 SLP171 T01220094 53012 $
KEWR 130751Z 31005KT 10SM CLR 12/09 A3002 RMK AO2 SLP165 T01220094 $
KEWR 130651Z 28007KT 10SM CLR 13/09 A3001 RMK AO2 SLP161 T01330094 $
KEWR 130551Z 30006KT 10SM CLR 14/09 A3000 RMK AO2 SLP159 T01440094 10178 20144 53004 $
KEWR 130451Z 28007KT 10SM FEW044 FEW120 15/09 A3000 RMK AO2 SLP158 T01500094 402110128 $
KEWR 130351Z 27010G18KT 10SM SCT044 SCT120 16/09 A2999 RMK AO2 SLP155 T01560094 $
KEWR 130251Z VRB05KT 10SM SCT120 16/09 A2999 RMK AO2 SLP155 T01560094 51012
KEWR 130151Z 29006KT 10SM FEW043 SCT120 16/09 A2998 RMK AO2 SLP150 T01610089
KEWR 130051Z 27006KT 10SM SCT049 BKN120 BKN250 17/09 A2997 RMK AO2 SLP148 T01670089
KEWR 122351Z 25006KT 10SM FEW049 BKN120 BKN250 18/09 A2996 RMK AO2 SLP143 T01780094 10211 20172 53010